createdAt,value
2022-10-30T00:01:06.602Z,16.00
2022-10-30T00:03:33.944Z,15.90
2022-10-30T00:06:05.190Z,15.90
2022-10-30T00:08:32.713Z,15.80
2022-10-30T00:11:13.282Z,15.80
2022-10-30T00:13:44.075Z,15.80
2022-10-30T00:16:11.614Z,15.80
2022-10-30T00:18:39.843Z,15.80
2022-10-30T00:21:09.686Z,15.80
2022-10-30T00:23:37.006Z,15.90
2022-10-30T00:26:05.930Z,15.90
2022-10-30T00:28:33.741Z,15.90
2022-10-30T00:31:03.127Z,15.90
2022-10-30T00:33:30.867Z,15.90
2022-10-30T00:36:00.372Z,15.90
2022-10-30T00:38:27.693Z,16.00
2022-10-30T00:40:54.914Z,15.90
2022-10-30T00:43:48.715Z,15.90
2022-10-30T00:46:15.977Z,15.90
2022-10-30T00:48:47.780Z,15.80
2022-10-30T00:51:15.588Z,15.80
2022-10-30T00:53:43.525Z,15.70
2022-10-30T00:56:12.759Z,15.80
2022-10-30T00:58:44.856Z,15.80
2022-10-30T01:01:17.672Z,15.70
2022-10-30T01:03:46.573Z,15.60
2022-10-30T01:06:15.903Z,15.60
2022-10-30T01:08:43.877Z,15.60
2022-10-30T01:11:12.301Z,15.60
2022-10-30T01:13:41.115Z,15.50
2022-10-30T01:16:21.476Z,15.50
2022-10-30T01:18:54.058Z,15.50
2022-10-30T01:21:54.682Z,15.50
2022-10-30T01:24:24.650Z,15.50
2022-10-30T01:27:00.012Z,15.50
2022-10-30T01:30:02.246Z,15.40
2022-10-30T01:32:49.591Z,15.30
2022-10-30T01:35:27.705Z,15.30
2022-10-30T01:38:02.797Z,15.40
2022-10-30T01:40:30.174Z,15.30
2022-10-30T01:42:58.628Z,15.20
2022-10-30T01:45:50.234Z,15.20
2022-10-30T01:48:49.375Z,15.20
2022-10-30T01:51:34.672Z,15.30
2022-10-30T01:54:32.410Z,15.30
2022-10-30T01:57:04.408Z,15.30
2022-10-30T01:59:39.386Z,15.20
2022-10-30T02:02:09.082Z,15.30
2022-10-30T02:04:38.626Z,15.30
2022-10-30T02:07:06.456Z,15.20
2022-10-30T02:09:40.297Z,15.20
2022-10-30T02:12:09.113Z,15.20
2022-10-30T02:14:42.213Z,15.20
2022-10-30T02:17:11.583Z,15.20
2022-10-30T02:19:39.020Z,15.20
2022-10-30T02:22:06.375Z,15.20
2022-10-30T02:24:33.686Z,15.20
2022-10-30T02:27:01.650Z,15.20
2022-10-30T02:29:29.306Z,15.20
2022-10-30T02:31:56.599Z,15.20
2022-10-30T02:34:23.923Z,15.20
2022-10-30T02:36:51.216Z,15.10
2022-10-30T02:39:21.208Z,15.10
2022-10-30T02:41:48.681Z,15.10
2022-10-30T02:44:15.966Z,15.10
2022-10-30T02:46:43.260Z,15.10
2022-10-30T02:49:10.664Z,15.00
2022-10-30T02:51:37.960Z,14.90
2022-10-30T02:54:05.371Z,14.90
2022-10-30T02:56:32.946Z,14.90
2022-10-30T02:59:00.987Z,15.00
2022-10-30T03:01:28.824Z,15.00
2022-10-30T03:03:58.470Z,14.90
2022-10-30T03:06:25.806Z,14.90
2022-10-30T03:08:53.079Z,14.90
2022-10-30T03:11:21.227Z,14.90
2022-10-30T03:13:49.406Z,14.90
2022-10-30T03:16:21.619Z,14.90
2022-10-30T03:18:51.211Z,14.80
2022-10-30T03:21:21.133Z,14.90
2022-10-30T03:23:50.449Z,14.80
2022-10-30T03:26:18.949Z,14.80
2022-10-30T03:28:56.314Z,14.80
2022-10-30T03:31:23.557Z,14.80
2022-10-30T03:34:13.745Z,14.80
2022-10-30T03:36:42.388Z,14.80
2022-10-30T03:39:09.835Z,14.90
2022-10-30T03:41:37.941Z,14.90
2022-10-30T03:44:05.209Z,14.90
2022-10-30T03:46:32.543Z,14.90
2022-10-30T03:49:15.090Z,14.90
2022-10-30T03:51:43.248Z,14.80
2022-10-30T03:54:10.454Z,14.90
2022-10-30T03:56:38.936Z,14.80
2022-10-30T03:59:08.532Z,14.80
2022-10-30T04:01:39.426Z,14.80
2022-10-30T04:04:06.812Z,14.80
2022-10-30T04:06:34.093Z,14.70
2022-10-30T04:09:02.247Z,14.70
2022-10-30T04:11:36.077Z,14.50
2022-10-30T04:14:03.332Z,14.40
2022-10-30T04:16:30.628Z,14.30
2022-10-30T04:18:59.456Z,14.30
2022-10-30T04:21:27.972Z,14.30
2022-10-30T04:23:55.238Z,14.40
2022-10-30T04:26:24.446Z,14.30
2022-10-30T04:28:51.711Z,14.30
2022-10-30T04:31:19.176Z,14.40
2022-10-30T04:33:46.692Z,14.50
2022-10-30T04:36:13.903Z,14.50
2022-10-30T04:38:41.214Z,14.60
2022-10-30T04:41:13.056Z,14.60
2022-10-30T04:43:52.112Z,14.60
2022-10-30T04:46:19.629Z,14.60
2022-10-30T04:48:46.906Z,14.60
2022-10-30T04:51:15.980Z,14.60
2022-10-30T04:53:44.733Z,14.60
2022-10-30T04:56:15.108Z,14.50
2022-10-30T04:58:42.443Z,14.50
2022-10-30T05:01:10.120Z,14.50
2022-10-30T05:03:38.339Z,14.30
2022-10-30T05:06:26.531Z,14.30
2022-10-30T05:08:55.683Z,14.20
2022-10-30T05:11:38.808Z,14.20
2022-10-30T05:14:07.120Z,14.10
2022-10-30T05:16:34.391Z,14.10
2022-10-30T05:19:04.012Z,14.10
2022-10-30T05:21:32.174Z,14.10
2022-10-30T05:23:59.384Z,14.00
2022-10-30T05:26:28.371Z,14.00
2022-10-30T05:28:55.686Z,14.00
2022-10-30T05:31:23.087Z,14.00
2022-10-30T05:33:53.303Z,14.00
2022-10-30T05:36:21.910Z,14.00
2022-10-30T05:38:49.637Z,14.00
2022-10-30T05:41:28.040Z,13.90
2022-10-30T05:43:55.346Z,13.90
2022-10-30T05:46:22.840Z,13.90
2022-10-30T05:48:50.207Z,13.90
2022-10-30T05:51:19.117Z,13.90
2022-10-30T05:53:52.532Z,14.00
2022-10-30T05:56:23.376Z,14.10
2022-10-30T05:58:50.921Z,14.10
2022-10-30T06:01:18.246Z,14.10
2022-10-30T06:03:50.187Z,14.20
2022-10-30T06:06:17.527Z,14.20
2022-10-30T06:08:45.364Z,14.20
2022-10-30T06:11:35.685Z,14.20
2022-10-30T06:14:03.268Z,14.20
2022-10-30T06:16:41.091Z,14.20
2022-10-30T06:19:40.478Z,14.30
2022-10-30T06:22:21.944Z,14.50
2022-10-30T06:24:55.924Z,14.60
2022-10-30T06:27:41.693Z,14.60
2022-10-30T06:30:09.272Z,14.70
2022-10-30T06:32:36.674Z,14.90
2022-10-30T06:35:04.556Z,15.00
2022-10-30T06:37:31.835Z,15.10
2022-10-30T06:40:03.644Z,15.20
2022-10-30T06:42:51.785Z,15.40
2022-10-30T06:45:40.891Z,15.70
2022-10-30T06:48:09.396Z,16.00
2022-10-30T06:50:41.521Z,16.20
2022-10-30T06:53:08.873Z,16.40
2022-10-30T06:55:36.880Z,16.60
2022-10-30T06:58:24.170Z,16.70
2022-10-30T07:01:04.079Z,16.90
2022-10-30T07:03:56.200Z,17.20
2022-10-30T07:06:24.004Z,17.20
2022-10-30T07:08:51.241Z,17.40
2022-10-30T07:11:19.980Z,17.60
2022-10-30T07:14:13.532Z,17.80
2022-10-30T07:16:48.543Z,18.40
2022-10-30T07:19:16.403Z,18.90
2022-10-30T07:21:44.690Z,19.10
2022-10-30T07:24:11.907Z,18.90
2022-10-30T07:26:51.795Z,18.80
2022-10-30T07:29:34.117Z,19.10
2022-10-30T07:32:20.613Z,19.40
2022-10-30T07:35:14.946Z,19.70
2022-10-30T07:38:14.705Z,20.00
2022-10-30T07:40:57.985Z,20.30
2022-10-30T07:43:49.465Z,20.40
2022-10-30T07:46:45.204Z,20.60
2022-10-30T07:49:31.038Z,20.90
2022-10-30T07:52:02.758Z,21.00
2022-10-30T07:54:30.201Z,20.90
2022-10-30T07:57:04.893Z,20.90
2022-10-30T07:59:50.807Z,20.80
2022-10-30T08:02:40.337Z,21.00
2022-10-30T08:05:34.965Z,21.40
2022-10-30T08:08:11.398Z,21.50
2022-10-30T08:10:39.157Z,21.70
2022-10-30T08:13:06.549Z,21.90
2022-10-30T08:15:33.910Z,22.00
2022-10-30T08:18:02.901Z,22.10
2022-10-30T08:20:30.240Z,22.10
2022-10-30T08:22:59.641Z,22.10
2022-10-30T08:25:29.121Z,22.30
2022-10-30T08:28:05.477Z,22.40
2022-10-30T08:30:37.927Z,22.50
2022-10-30T08:33:10.127Z,22.70
2022-10-30T08:35:58.843Z,22.70
2022-10-30T08:38:28.011Z,22.80
2022-10-30T08:41:18.037Z,22.90
2022-10-30T08:43:48.692Z,22.90
2022-10-30T08:46:16.041Z,22.80
2022-10-30T08:48:43.279Z,22.60
2022-10-30T08:51:10.589Z,22.80
2022-10-30T08:53:43.862Z,22.90
2022-10-30T08:56:14.486Z,23.10
2022-10-30T08:59:13.765Z,23.40
2022-10-30T09:01:47.670Z,23.50
2022-10-30T09:04:21.453Z,23.60
2022-10-30T09:07:10.271Z,23.80
2022-10-30T09:09:52.103Z,23.90
2022-10-30T09:12:19.477Z,24.00
2022-10-30T09:14:47.659Z,24.10
2022-10-30T09:17:14.892Z,24.10
2022-10-30T09:19:45.637Z,24.20
2022-10-30T09:22:18.450Z,24.10
2022-10-30T09:24:47.279Z,24.30
2022-10-30T09:27:38.806Z,24.40
2022-10-30T09:30:08.265Z,24.60
2022-10-30T09:32:41.293Z,24.80
2022-10-30T09:35:11.298Z,24.80
2022-10-30T09:37:40.565Z,24.90
2022-10-30T09:40:29.758Z,24.90
2022-10-30T09:43:28.038Z,24.70
2022-10-30T09:46:19.960Z,24.80
2022-10-30T09:48:54.405Z,24.80
2022-10-30T09:51:49.078Z,24.80
2022-10-30T09:54:36.145Z,24.50
2022-10-30T09:57:17.062Z,24.70
2022-10-30T10:00:16.464Z,24.70
2022-10-30T10:02:49.683Z,24.90
2022-10-30T10:05:32.413Z,25.10
2022-10-30T10:08:47.808Z,25.10
2022-10-30T10:11:45.551Z,25.10
2022-10-30T10:14:23.994Z,25.10
2022-10-30T10:16:56.483Z,25.00
2022-10-30T10:19:39.167Z,25.10
2022-10-30T10:22:20.391Z,25.30
2022-10-30T10:24:48.405Z,25.30
2022-10-30T10:27:31.225Z,25.30
2022-10-30T10:30:17.444Z,25.10
2022-10-30T10:33:05.986Z,25.00
2022-10-30T10:35:36.032Z,24.80
2022-10-30T10:38:21.094Z,24.80
2022-10-30T10:41:00.292Z,24.70
2022-10-30T10:43:58.151Z,24.60
2022-10-30T10:46:38.171Z,24.50
2022-10-30T10:49:23.994Z,24.50
2022-10-30T10:51:56.922Z,24.20
2022-10-30T10:54:34.486Z,24.30
2022-10-30T10:57:06.682Z,24.40
2022-10-30T10:59:46.660Z,24.40
2022-10-30T11:02:33.195Z,24.20
2022-10-30T11:05:07.694Z,24.20
2022-10-30T11:07:43.843Z,24.00
2022-10-30T11:10:15.847Z,24.00
2022-10-30T11:12:43.456Z,24.00
2022-10-30T11:15:51.785Z,24.00
2022-10-30T11:18:19.772Z,24.00
2022-10-30T11:21:00.821Z,24.00
2022-10-30T11:23:34.389Z,24.10
2022-10-30T11:26:03.390Z,24.20
2022-10-30T11:28:45.168Z,24.30
2022-10-30T11:31:35.075Z,24.30
2022-10-30T11:34:14.887Z,24.30
2022-10-30T11:36:43.076Z,24.20
2022-10-30T11:39:31.688Z,24.20
2022-10-30T11:42:04.339Z,24.30
2022-10-30T11:44:38.418Z,24.30
2022-10-30T11:47:07.354Z,24.50
2022-10-30T11:49:49.083Z,24.50
2022-10-30T11:52:19.530Z,24.40
2022-10-30T11:54:50.549Z,24.40
2022-10-30T11:57:33.713Z,24.50
2022-10-30T12:00:05.225Z,24.40
2022-10-30T12:02:44.257Z,24.40
2022-10-30T12:05:43.710Z,24.30
2022-10-30T12:08:18.839Z,24.30
2022-10-30T12:10:55.274Z,24.20
2022-10-30T12:13:24.572Z,24.20
2022-10-30T12:16:05.759Z,24.30
2022-10-30T12:18:33.630Z,24.30
2022-10-30T12:21:02.673Z,24.30
2022-10-30T12:23:31.009Z,24.30
2022-10-30T12:26:01.630Z,24.30
2022-10-30T12:28:31.539Z,24.40
2022-10-30T12:31:13.953Z,24.40
2022-10-30T12:36:47.805Z,24.40
2022-10-30T12:39:44.823Z,24.40
2022-10-30T12:42:17.464Z,24.40
2022-10-30T12:44:50.154Z,24.40
2022-10-30T12:47:29.448Z,24.40
2022-10-30T12:53:05.150Z,24.50
2022-10-30T12:55:39.449Z,24.50
2022-10-30T12:58:33.179Z,24.50
2022-10-30T13:01:26.698Z,24.60
2022-10-30T13:04:07.037Z,24.80
2022-10-30T13:06:46.351Z,24.80
2022-10-30T13:09:23.853Z,24.80
2022-10-30T13:12:16.810Z,24.70
2022-10-30T13:14:55.576Z,24.70
2022-10-30T13:17:23.736Z,24.80
2022-10-30T13:19:51.135Z,24.70
2022-10-30T13:22:29.247Z,24.70
2022-10-30T13:25:08.391Z,24.80
2022-10-30T13:27:57.482Z,24.80
2022-10-30T13:30:34.304Z,24.70
2022-10-30T13:33:24.058Z,24.70
2022-10-30T13:35:56.838Z,24.70
2022-10-30T13:38:30.410Z,24.60
2022-10-30T13:41:11.699Z,24.60
2022-10-30T13:44:12.448Z,24.70
2022-10-30T13:47:16.774Z,24.80
2022-10-30T13:49:52.847Z,24.80
2022-10-30T13:52:22.273Z,24.80
2022-10-30T13:55:04.418Z,24.80
2022-10-30T13:57:52.087Z,24.80
2022-10-30T14:00:20.909Z,24.80
2022-10-30T14:03:26.413Z,24.80
2022-10-30T14:06:15.796Z,24.70
2022-10-30T14:09:04.117Z,24.70
2022-10-30T14:11:31.495Z,24.70
2022-10-30T14:14:05.582Z,24.70
2022-10-30T14:16:35.964Z,24.70
2022-10-30T14:19:21.294Z,24.60
2022-10-30T14:21:56.818Z,24.60
2022-10-30T14:27:05.207Z,24.60
2022-10-30T14:29:38.270Z,24.60
2022-10-30T14:32:14.751Z,24.60
2022-10-30T14:35:01.610Z,24.60
2022-10-30T14:37:29.763Z,24.60
2022-10-30T14:40:17.655Z,24.50
2022-10-30T14:42:57.600Z,24.50
2022-10-30T14:45:45.855Z,24.50
2022-10-30T14:48:28.563Z,24.50
2022-10-30T14:51:05.747Z,24.50
2022-10-30T14:53:54.601Z,24.50
2022-10-30T14:56:41.076Z,24.50
2022-10-30T14:59:14.350Z,24.40
2022-10-30T15:02:27.921Z,24.40
2022-10-30T15:05:34.499Z,24.30
2022-10-30T15:08:26.157Z,24.20
2022-10-30T15:11:18.227Z,24.20
2022-10-30T15:14:05.925Z,24.10
2022-10-30T15:16:37.848Z,24.00
2022-10-30T15:19:07.974Z,23.90
2022-10-30T15:21:43.737Z,23.90
2022-10-30T15:24:31.146Z,23.90
2022-10-30T15:27:01.804Z,23.80
2022-10-30T15:29:32.225Z,23.70
2022-10-30T15:32:05.632Z,23.70
2022-10-30T15:34:37.709Z,23.60
2022-10-30T15:37:13.258Z,23.60
2022-10-30T15:39:43.719Z,23.50
2022-10-30T15:42:16.727Z,23.50
2022-10-30T15:44:49.844Z,23.40
2022-10-30T15:47:20.863Z,23.30
2022-10-30T15:49:57.204Z,23.20
2022-10-30T15:52:30.565Z,23.10
2022-10-30T15:55:02.809Z,23.00
2022-10-30T15:58:01.563Z,22.90
2022-10-30T16:00:34.697Z,22.80
2022-10-30T16:03:06.486Z,22.60
2022-10-30T16:05:34.726Z,22.60
2022-10-30T16:08:04.623Z,22.50
2022-10-30T16:10:36.213Z,22.30
2022-10-30T16:13:04.215Z,22.20
2022-10-30T16:15:39.041Z,22.10
2022-10-30T16:18:18.221Z,22.00
2022-10-30T16:20:49.813Z,21.80
2022-10-30T16:23:19.986Z,21.70
2022-10-30T16:25:52.959Z,21.50
2022-10-30T16:28:25.559Z,21.40
2022-10-30T16:30:53.615Z,21.30
2022-10-30T16:33:26.192Z,21.10
2022-10-30T16:35:55.903Z,21.00
2022-10-30T16:38:26.527Z,20.90
2022-10-30T16:40:54.223Z,20.90
2022-10-30T16:43:30.168Z,20.80
2022-10-30T16:46:09.563Z,20.70
2022-10-30T16:48:36.984Z,20.70
2022-10-30T16:51:04.627Z,20.60
2022-10-30T16:53:32.437Z,20.60
2022-10-30T16:56:00.104Z,20.60
2022-10-30T16:58:30.665Z,20.50
2022-10-30T17:01:05.657Z,20.40
2022-10-30T17:03:38.169Z,20.40
2022-10-30T17:06:24.581Z,20.30
2022-10-30T17:08:53.628Z,20.30
2022-10-30T17:11:44.634Z,20.20
2022-10-30T17:14:23.201Z,20.10
2022-10-30T17:16:56.043Z,20.10
2022-10-30T17:19:32.543Z,20.00
2022-10-30T17:22:04.635Z,20.00
2022-10-30T17:24:34.248Z,19.90
2022-10-30T17:27:07.920Z,19.90
2022-10-30T17:29:38.182Z,19.90
2022-10-30T17:32:14.762Z,19.90
2022-10-30T17:34:41.967Z,19.90
2022-10-30T17:37:09.177Z,19.80
2022-10-30T17:39:36.373Z,19.80
2022-10-30T17:42:04.737Z,19.80
2022-10-30T17:44:35.330Z,19.70
2022-10-30T17:47:18.233Z,19.80
2022-10-30T17:49:45.922Z,19.70
2022-10-30T17:52:14.739Z,19.70
2022-10-30T17:54:42.673Z,19.70
2022-10-30T17:57:11.706Z,19.90
2022-10-30T17:59:39.764Z,20.00
2022-10-30T18:02:14.161Z,20.20
2022-10-30T18:04:44.843Z,20.10
2022-10-30T18:07:13.862Z,20.10
2022-10-30T18:09:42.034Z,19.90
2022-10-30T18:12:14.060Z,19.80
2022-10-30T18:14:43.166Z,19.70
2022-10-30T18:17:11.107Z,19.50
2022-10-30T18:19:38.553Z,19.30
2022-10-30T18:22:06.344Z,19.20
2022-10-30T18:24:33.647Z,19.10
2022-10-30T18:27:01.114Z,19.00
2022-10-30T18:29:28.453Z,19.00
2022-10-30T18:31:55.706Z,18.90
2022-10-30T18:34:23.036Z,18.80
2022-10-30T18:36:50.357Z,18.70
2022-10-30T18:39:17.567Z,18.70
2022-10-30T18:41:46.442Z,18.70
2022-10-30T18:44:15.524Z,18.70
2022-10-30T18:46:43.005Z,18.70
2022-10-30T18:49:10.540Z,18.70
2022-10-30T18:51:38.212Z,18.70
2022-10-30T18:54:15.428Z,18.60
2022-10-30T18:56:42.830Z,18.60
2022-10-30T18:59:10.061Z,18.50
2022-10-30T19:01:37.961Z,18.50
2022-10-30T19:04:09.992Z,18.40
2022-10-30T19:06:38.710Z,18.40
2022-10-30T19:09:06.734Z,18.40
2022-10-30T19:11:34.890Z,18.30
2022-10-30T19:14:03.648Z,18.30
2022-10-30T19:16:31.150Z,18.20
2022-10-30T19:18:58.380Z,18.10
2022-10-30T19:21:26.543Z,18.10
2022-10-30T19:23:58.023Z,18.00
2022-10-30T19:26:25.253Z,18.00
2022-10-30T19:28:52.509Z,18.00
2022-10-30T19:31:20.952Z,17.90
2022-10-30T19:33:52.849Z,17.90
2022-10-30T19:36:36.891Z,17.90
2022-10-30T19:39:10.375Z,17.90
2022-10-30T19:41:38.632Z,17.90
2022-10-30T19:44:06.371Z,17.90
2022-10-30T19:46:34.289Z,17.80
2022-10-30T19:49:18.916Z,17.80
2022-10-30T19:51:47.552Z,17.80
2022-10-30T19:54:14.962Z,17.70
2022-10-30T19:56:43.963Z,17.70
2022-10-30T19:59:13.986Z,17.60
2022-10-30T20:01:41.622Z,17.60
2022-10-30T20:04:09.636Z,17.60
2022-10-30T20:06:36.912Z,17.60
2022-10-30T20:09:05.373Z,17.50
2022-10-30T20:11:32.699Z,17.60
2022-10-30T20:13:59.971Z,17.60
2022-10-30T20:16:27.477Z,17.50
2022-10-30T20:18:54.759Z,17.40
2022-10-30T20:21:22.083Z,17.40
2022-10-30T20:23:51.069Z,17.30
2022-10-30T20:26:29.443Z,17.30
2022-10-30T20:28:57.364Z,17.30
2022-10-30T20:31:25.166Z,17.30
2022-10-30T20:33:52.463Z,17.20
2022-10-30T20:36:19.684Z,17.20
2022-10-30T20:38:46.970Z,17.20
2022-10-30T20:41:24.439Z,17.10
2022-10-30T20:43:52.250Z,17.00
2022-10-30T20:46:20.380Z,17.00
2022-10-30T20:48:48.058Z,17.00
2022-10-30T20:51:15.693Z,17.00
2022-10-30T20:53:43.067Z,17.00
2022-10-30T20:56:11.623Z,16.90
2022-10-30T20:58:39.315Z,16.90
2022-10-30T21:01:06.719Z,17.00
2022-10-30T21:03:34.017Z,17.10
2022-10-30T21:06:02.062Z,17.10
2022-10-30T21:08:33.675Z,17.10
2022-10-30T21:11:02.191Z,17.10
2022-10-30T21:13:30.455Z,17.10
2022-10-30T21:16:02.740Z,17.10
2022-10-30T21:18:30.570Z,17.10
2022-10-30T21:21:06.873Z,17.00
2022-10-30T21:23:34.578Z,17.00
2022-10-30T21:26:03.970Z,16.90
2022-10-30T21:28:31.518Z,16.90
2022-10-30T21:31:07.342Z,16.90
2022-10-30T21:33:35.892Z,16.80
2022-10-30T21:36:14.470Z,16.80
2022-10-30T21:38:43.200Z,16.80
2022-10-30T21:41:12.977Z,16.70
2022-10-30T21:43:40.433Z,16.80
2022-10-30T21:46:10.725Z,16.80
2022-10-30T21:48:38.588Z,16.80
2022-10-30T21:51:15.735Z,16.80
2022-10-30T21:53:44.152Z,16.80
2022-10-30T21:56:17.346Z,16.80
2022-10-30T21:58:45.137Z,16.70
2022-10-30T22:01:23.979Z,16.70
2022-10-30T22:03:51.719Z,16.60
2022-10-30T22:06:20.833Z,16.60
2022-10-30T22:08:50.729Z,16.60
2022-10-30T22:11:18.956Z,16.60
2022-10-30T22:13:47.403Z,16.70
2022-10-30T22:16:15.403Z,16.70
2022-10-30T22:18:42.795Z,16.70
2022-10-30T22:21:12.123Z,16.70
2022-10-30T22:23:40.908Z,16.70
2022-10-30T22:26:12.375Z,16.70
2022-10-30T22:28:39.651Z,16.70
2022-10-30T22:31:09.722Z,16.60
2022-10-30T22:33:37.154Z,16.70
2022-10-30T22:36:06.733Z,16.70
2022-10-30T22:38:35.110Z,16.60
2022-10-30T22:41:20.526Z,16.70
2022-10-30T22:43:48.958Z,16.60
2022-10-30T22:46:18.624Z,16.60
2022-10-30T22:48:46.011Z,16.60
2022-10-30T22:51:15.475Z,16.40
2022-10-30T22:53:47.355Z,16.50
2022-10-30T22:56:15.500Z,16.30
2022-10-30T22:58:43.545Z,16.30
2022-10-30T23:01:26.081Z,16.30
2022-10-30T23:03:56.245Z,16.30
2022-10-30T23:06:24.380Z,16.30
2022-10-30T23:08:53.013Z,16.30
2022-10-30T23:11:20.974Z,16.30
2022-10-30T23:13:48.505Z,16.30
2022-10-30T23:16:22.000Z,16.30
2022-10-30T23:18:50.827Z,16.30
2022-10-30T23:21:26.444Z,16.30
2022-10-30T23:23:54.245Z,16.20
2022-10-30T23:26:24.333Z,16.20
2022-10-30T23:28:53.697Z,16.20
2022-10-30T23:31:27.369Z,16.10
2022-10-30T23:33:57.745Z,16.10
2022-10-30T23:36:25.341Z,16.20
2022-10-30T23:38:58.155Z,16.10
2022-10-30T23:41:30.980Z,16.10
2022-10-30T23:44:07.698Z,16.10
2022-10-30T23:46:35.690Z,16.00
2022-10-30T23:49:04.105Z,16.10
2022-10-30T23:51:31.872Z,16.00
2022-10-30T23:53:59.485Z,16.00
2022-10-30T23:56:28.135Z,16.00
2022-10-30T23:58:55.827Z,15.90
